createdAt,value
2017-12-21T00:02:10.557Z,4.90
2017-12-21T00:04:44.292Z,4.90
2017-12-21T00:07:18.792Z,4.80
2017-12-21T00:09:52.598Z,4.80
2017-12-21T00:12:26.616Z,4.90
2017-12-21T00:15:00.382Z,5.00
2017-12-21T00:17:34.284Z,5.10
2017-12-21T00:20:08.135Z,5.10
2017-12-21T00:22:41.920Z,5.20
2017-12-21T00:25:15.696Z,5.20
2017-12-21T00:27:49.536Z,5.30
2017-12-21T00:30:23.278Z,5.30
2017-12-21T00:32:57.765Z,5.30
2017-12-21T00:35:31.484Z,5.30
2017-12-21T00:38:05.294Z,5.30
2017-12-21T00:40:39.175Z,5.40
2017-12-21T00:43:14.302Z,5.30
2017-12-21T00:45:48.004Z,5.20
2017-12-21T00:48:21.855Z,5.20
2017-12-21T00:50:55.715Z,5.20
2017-12-21T00:53:30.362Z,5.20
2017-12-21T00:56:03.992Z,5.20
2017-12-21T00:58:38.598Z,5.10
2017-12-21T01:01:12.368Z,5.10
2017-12-21T01:03:46.236Z,5.10
2017-12-21T01:06:20.048Z,5.00
2017-12-21T01:08:53.960Z,5.00
2017-12-21T01:11:27.748Z,5.00
2017-12-21T01:14:02.346Z,5.10
2017-12-21T01:16:36.074Z,5.10
2017-12-21T01:19:10.689Z,4.90
2017-12-21T01:21:44.507Z,4.90
2017-12-21T01:24:19.118Z,4.70
2017-12-21T01:26:52.960Z,4.70
2017-12-21T01:29:26.800Z,4.80
2017-12-21T01:32:00.528Z,4.70
2017-12-21T01:34:34.553Z,4.70
2017-12-21T01:37:08.264Z,4.70
2017-12-21T01:39:42.878Z,4.80
2017-12-21T01:42:16.671Z,4.80
2017-12-21T01:44:50.404Z,4.90
2017-12-21T01:47:24.996Z,4.90
2017-12-21T01:49:58.977Z,4.80
2017-12-21T01:52:32.716Z,4.80
2017-12-21T01:55:06.340Z,4.70
2017-12-21T01:57:40.147Z,4.70
2017-12-21T02:00:13.979Z,4.70
2017-12-21T02:02:47.752Z,4.80
2017-12-21T02:05:22.270Z,5.00
2017-12-21T02:07:56.760Z,5.00
2017-12-21T02:10:31.539Z,5.00
2017-12-21T02:13:05.406Z,5.00
2017-12-21T02:15:39.285Z,5.10
2017-12-21T02:18:13.934Z,5.10
2017-12-21T02:20:47.727Z,5.10
2017-12-21T02:23:22.248Z,5.00
2017-12-21T02:25:56.995Z,4.90
2017-12-21T02:28:30.785Z,4.90
2017-12-21T02:31:04.618Z,4.90
2017-12-21T02:33:38.341Z,5.00
2017-12-21T02:36:12.314Z,5.00
2017-12-21T02:38:46.125Z,5.10
2017-12-21T02:41:19.952Z,5.10
2017-12-21T02:43:54.463Z,5.10
2017-12-21T02:46:28.996Z,5.10
2017-12-21T02:49:02.748Z,5.00
2017-12-21T02:51:37.620Z,5.00
2017-12-21T02:54:11.284Z,5.00
2017-12-21T02:56:45.126Z,5.00
2017-12-21T02:59:18.864Z,5.00
2017-12-21T03:01:53.483Z,5.00
2017-12-21T03:04:27.081Z,5.00
2017-12-21T03:07:00.825Z,5.00
2017-12-21T03:09:34.592Z,5.10
2017-12-21T03:12:08.408Z,5.20
2017-12-21T03:14:42.268Z,5.20
2017-12-21T03:17:15.869Z,5.10
2017-12-21T03:19:49.923Z,5.10
2017-12-21T03:22:23.703Z,5.00
2017-12-21T03:24:58.373Z,5.20
2017-12-21T03:27:32.103Z,5.20
2017-12-21T03:30:05.839Z,5.20
2017-12-21T03:32:39.575Z,5.20
2017-12-21T03:35:14.180Z,5.10
2017-12-21T03:37:47.994Z,5.10
2017-12-21T03:40:21.632Z,5.20
2017-12-21T03:42:55.416Z,5.20
2017-12-21T03:45:29.936Z,5.10
2017-12-21T03:48:03.807Z,5.10
2017-12-21T03:50:37.527Z,5.10
2017-12-21T03:53:11.129Z,5.10
2017-12-21T03:55:44.893Z,5.20
2017-12-21T03:58:19.432Z,5.20
2017-12-21T04:00:53.266Z,5.30
2017-12-21T04:03:27.077Z,5.30
2017-12-21T04:06:00.929Z,5.30
2017-12-21T04:08:35.287Z,5.30
2017-12-21T04:11:09.824Z,5.20
2017-12-21T04:13:43.649Z,5.20
2017-12-21T04:16:17.441Z,5.10
2017-12-21T04:18:51.254Z,5.10
2017-12-21T04:21:25.052Z,5.10
2017-12-21T04:23:59.573Z,5.20
2017-12-21T04:26:33.263Z,5.20
2017-12-21T04:29:07.138Z,5.30
2017-12-21T04:31:41.206Z,5.30
2017-12-21T04:34:14.986Z,5.30
2017-12-21T04:36:48.812Z,5.30
2017-12-21T04:39:22.625Z,5.30
2017-12-21T04:41:56.464Z,5.40
2017-12-21T04:44:30.209Z,5.40
2017-12-21T04:47:04.027Z,5.40
2017-12-21T04:49:38.664Z,5.40
2017-12-21T04:52:12.490Z,5.40
2017-12-21T04:54:46.281Z,5.50
2017-12-21T04:57:20.080Z,5.50
2017-12-21T04:59:53.804Z,5.40
2017-12-21T05:02:27.609Z,5.40
2017-12-21T05:05:01.429Z,5.40
2017-12-21T05:07:37.239Z,5.40
2017-12-21T05:10:11.760Z,5.40
2017-12-21T05:12:45.433Z,5.40
2017-12-21T05:15:19.699Z,5.30
2017-12-21T05:17:53.686Z,5.30
2017-12-21T05:20:27.565Z,5.30
2017-12-21T05:23:01.328Z,5.40
2017-12-21T05:25:35.828Z,5.10
2017-12-21T05:28:09.692Z,5.10
2017-12-21T05:30:43.465Z,5.10
2017-12-21T05:33:18.080Z,5.10
2017-12-21T05:35:51.702Z,5.00
2017-12-21T05:38:25.804Z,5.10
2017-12-21T05:40:59.674Z,5.10
2017-12-21T05:43:33.484Z,5.00
2017-12-21T05:46:07.185Z,5.10
2017-12-21T05:48:42.649Z,5.20
2017-12-21T05:51:16.363Z,5.20
2017-12-21T05:53:51.099Z,5.20
2017-12-21T05:56:25.704Z,5.20
2017-12-21T05:58:59.470Z,5.20
2017-12-21T06:01:33.349Z,5.20
2017-12-21T06:04:07.324Z,5.10
2017-12-21T06:06:42.948Z,5.10
2017-12-21T06:09:16.791Z,5.10
2017-12-21T06:11:50.601Z,5.20
2017-12-21T06:14:25.120Z,5.10
2017-12-21T06:16:59.009Z,5.20
2017-12-21T06:19:33.647Z,5.20
2017-12-21T06:22:09.291Z,5.20
2017-12-21T06:24:45.036Z,5.20
2017-12-21T06:27:18.708Z,5.10
2017-12-21T06:29:54.394Z,5.10
2017-12-21T06:32:28.582Z,5.00
2017-12-21T06:35:03.254Z,5.10
2017-12-21T06:37:36.925Z,5.10
2017-12-21T06:40:12.304Z,5.40
2017-12-21T06:42:46.111Z,5.40
2017-12-21T06:45:20.719Z,6.30
2017-12-21T06:47:56.305Z,6.20
2017-12-21T06:50:30.278Z,5.80
2017-12-21T06:53:04.041Z,5.60
2017-12-21T06:55:37.848Z,5.50
2017-12-21T06:58:11.693Z,5.40
2017-12-21T07:00:45.532Z,5.40
2017-12-21T07:03:19.302Z,5.30
2017-12-21T07:05:53.840Z,5.30
2017-12-21T07:08:27.739Z,5.30
2017-12-21T07:11:01.533Z,5.30
2017-12-21T07:13:35.377Z,5.30
2017-12-21T07:16:09.988Z,5.30
2017-12-21T07:18:43.694Z,5.20
2017-12-21T07:21:22.873Z,5.30
2017-12-21T07:23:56.884Z,5.30
2017-12-21T07:26:30.680Z,5.20
2017-12-21T07:29:04.537Z,5.20
2017-12-21T07:31:38.397Z,5.20
2017-12-21T07:34:12.972Z,5.30
2017-12-21T07:36:47.423Z,5.20
2017-12-21T07:39:21.191Z,5.20
2017-12-21T07:41:54.885Z,5.20
2017-12-21T07:44:28.582Z,5.20
2017-12-21T07:47:03.196Z,5.30
2017-12-21T07:49:36.936Z,5.40
2017-12-21T07:52:10.744Z,5.50
2017-12-21T07:54:45.235Z,5.60
2017-12-21T07:57:19.088Z,5.60
2017-12-21T07:59:53.572Z,5.60
2017-12-21T08:02:28.008Z,5.60
2017-12-21T08:05:01.824Z,5.60
2017-12-21T08:07:35.872Z,5.60
2017-12-21T08:10:09.520Z,5.60
2017-12-21T08:12:43.379Z,5.60
2017-12-21T08:15:17.149Z,5.60
2017-12-21T08:17:50.885Z,5.60
2017-12-21T08:20:25.459Z,5.80
2017-12-21T08:23:00.080Z,5.90
2017-12-21T08:25:33.666Z,5.90
2017-12-21T08:28:07.465Z,5.90
2017-12-21T08:30:41.116Z,6.00
2017-12-21T08:33:14.932Z,6.00
2017-12-21T08:35:49.417Z,6.10
2017-12-21T08:38:23.247Z,6.00
2017-12-21T08:40:57.543Z,6.10
2017-12-21T08:43:31.685Z,6.10
2017-12-21T08:46:05.446Z,6.00
2017-12-21T08:48:39.262Z,6.10
2017-12-21T08:51:13.116Z,6.10
2017-12-21T08:53:46.941Z,6.00
2017-12-21T08:56:21.385Z,5.90
2017-12-21T08:58:55.282Z,6.00
2017-12-21T09:01:29.120Z,6.00
2017-12-21T09:04:03.785Z,6.10
2017-12-21T09:06:38.390Z,6.20
2017-12-21T09:09:12.241Z,6.20
2017-12-21T09:11:46.047Z,6.30
2017-12-21T09:14:19.912Z,6.20
2017-12-21T09:16:54.456Z,6.20
2017-12-21T09:19:28.409Z,6.20
2017-12-21T09:22:02.280Z,6.20
2017-12-21T09:24:36.179Z,6.20
2017-12-21T09:27:10.099Z,6.10
2017-12-21T09:29:43.881Z,6.20
2017-12-21T09:32:18.715Z,6.40
2017-12-21T09:34:53.209Z,6.40
2017-12-21T09:37:26.971Z,6.40
2017-12-21T09:40:00.779Z,6.30
2017-12-21T09:42:34.555Z,6.40
2017-12-21T09:45:08.360Z,6.50
2017-12-21T09:47:42.080Z,6.60
2017-12-21T09:50:16.945Z,6.60
2017-12-21T09:52:51.823Z,6.70
2017-12-21T09:55:25.601Z,6.70
2017-12-21T09:58:00.389Z,6.90
2017-12-21T10:00:34.058Z,6.90
2017-12-21T10:03:07.792Z,6.80
2017-12-21T10:05:41.550Z,6.80
2017-12-21T10:08:15.387Z,6.90
2017-12-21T10:10:49.249Z,7.10
2017-12-21T10:13:23.000Z,7.10
2017-12-21T10:15:57.712Z,7.30
2017-12-21T10:18:32.216Z,7.40
2017-12-21T10:21:06.016Z,7.40
2017-12-21T10:23:39.817Z,7.40
2017-12-21T10:26:14.361Z,7.50
2017-12-21T10:28:48.944Z,7.40
2017-12-21T10:31:22.823Z,7.40
2017-12-21T10:33:56.617Z,7.40
2017-12-21T10:36:30.458Z,7.30
2017-12-21T10:39:04.256Z,7.10
2017-12-21T10:41:38.808Z,7.20
2017-12-21T10:44:13.347Z,7.30
2017-12-21T10:46:48.071Z,7.30
2017-12-21T10:49:21.877Z,7.30
2017-12-21T10:51:55.622Z,7.40
2017-12-21T10:54:29.344Z,7.40
2017-12-21T10:57:03.289Z,7.50
2017-12-21T10:59:37.328Z,7.50
2017-12-21T11:02:11.476Z,7.50
2017-12-21T11:04:45.192Z,7.40
2017-12-21T11:07:19.058Z,7.50
2017-12-21T11:09:52.844Z,7.50
2017-12-21T11:12:27.613Z,7.50
2017-12-21T11:15:01.864Z,7.50
2017-12-21T11:17:35.705Z,7.60
2017-12-21T11:20:10.213Z,7.80
2017-12-21T11:22:44.044Z,7.80
2017-12-21T11:25:17.874Z,7.80
2017-12-21T11:27:52.064Z,7.80
2017-12-21T11:30:26.573Z,8.00
2017-12-21T11:33:00.363Z,8.00
2017-12-21T11:35:34.056Z,8.10
2017-12-21T11:38:07.904Z,8.10
2017-12-21T11:40:41.744Z,8.10
2017-12-21T11:43:15.408Z,8.00
2017-12-21T11:45:49.306Z,8.00
2017-12-21T11:48:23.046Z,8.00
2017-12-21T11:50:56.798Z,8.00
2017-12-21T11:53:30.476Z,8.00
2017-12-21T11:56:04.332Z,8.00
2017-12-21T11:58:38.083Z,8.00
2017-12-21T12:01:12.754Z,8.00
2017-12-21T12:03:46.500Z,7.90
2017-12-21T12:06:20.240Z,7.90
2017-12-21T12:08:54.802Z,7.90
2017-12-21T12:11:29.318Z,8.00
2017-12-21T12:14:02.996Z,8.00
2017-12-21T12:16:36.818Z,7.90
2017-12-21T12:19:10.480Z,7.80
2017-12-21T12:21:44.300Z,7.90
2017-12-21T12:24:18.161Z,8.00
2017-12-21T12:26:51.904Z,8.00
2017-12-21T12:29:25.660Z,8.10
2017-12-21T12:31:59.561Z,8.20
2017-12-21T12:34:33.418Z,8.20
2017-12-21T12:37:07.112Z,8.10
2017-12-21T12:39:40.950Z,8.00
2017-12-21T12:42:15.595Z,7.80
2017-12-21T12:44:49.628Z,7.80
2017-12-21T12:47:23.411Z,7.80
2017-12-21T12:49:57.175Z,7.80
2017-12-21T12:52:31.776Z,7.90
2017-12-21T12:55:05.538Z,7.90
2017-12-21T12:57:40.279Z,7.90
2017-12-21T13:00:14.093Z,7.90
2017-12-21T13:02:47.975Z,7.90
2017-12-21T13:05:22.637Z,7.80
2017-12-21T13:07:56.466Z,7.80
2017-12-21T13:10:30.617Z,7.80
2017-12-21T13:13:04.547Z,7.80
2017-12-21T13:15:38.338Z,7.90
2017-12-21T13:18:11.954Z,8.00
2017-12-21T13:20:47.554Z,8.00
2017-12-21T13:23:21.306Z,8.00
2017-12-21T13:25:55.048Z,7.90
2017-12-21T13:28:29.558Z,7.90
2017-12-21T13:31:03.427Z,7.90
2017-12-21T13:33:37.156Z,7.90
2017-12-21T13:36:11.176Z,7.80
2017-12-21T13:38:45.709Z,7.70
2017-12-21T13:41:19.386Z,7.70
2017-12-21T13:43:54.013Z,7.60
2017-12-21T13:46:27.720Z,7.50
2017-12-21T13:49:01.532Z,7.50
2017-12-21T13:51:35.313Z,7.50
2017-12-21T13:54:10.705Z,7.50
2017-12-21T13:56:44.789Z,7.40
2017-12-21T13:59:18.636Z,7.40
2017-12-21T14:01:52.456Z,7.40
2017-12-21T14:04:26.251Z,7.40
2017-12-21T14:07:00.046Z,7.50
2017-12-21T14:09:33.849Z,7.50
2017-12-21T14:12:07.595Z,7.50
2017-12-21T14:14:42.180Z,7.40
2017-12-21T14:17:15.964Z,7.40
2017-12-21T14:19:49.776Z,7.40
2017-12-21T14:22:23.476Z,7.40
2017-12-21T14:24:57.588Z,7.40
2017-12-21T14:27:31.316Z,7.30
2017-12-21T14:30:05.107Z,7.30
2017-12-21T14:32:39.677Z,7.40
2017-12-21T14:35:13.459Z,7.30
2017-12-21T14:37:48.000Z,7.50
2017-12-21T14:40:21.777Z,7.40
2017-12-21T14:42:55.509Z,7.50
2017-12-21T14:45:30.323Z,7.50
2017-12-21T14:48:03.970Z,7.50
2017-12-21T14:50:37.809Z,7.60
2017-12-21T14:53:11.618Z,7.60
2017-12-21T14:55:46.240Z,7.50
2017-12-21T14:58:20.122Z,7.50
2017-12-21T15:00:53.926Z,7.50
2017-12-21T15:03:27.591Z,7.50
2017-12-21T15:06:01.416Z,7.60
2017-12-21T15:08:35.231Z,7.50
2017-12-21T15:11:09.108Z,7.50
2017-12-21T15:13:42.844Z,7.50
2017-12-21T15:16:16.724Z,7.40
2017-12-21T15:18:50.526Z,7.40
2017-12-21T15:21:24.324Z,7.40
2017-12-21T15:23:58.389Z,7.40
2017-12-21T15:26:32.289Z,7.50
2017-12-21T15:29:06.267Z,7.40
2017-12-21T15:31:40.057Z,7.40
2017-12-21T15:34:14.052Z,7.40
2017-12-21T15:36:47.854Z,7.40
2017-12-21T15:39:22.421Z,7.30
2017-12-21T15:41:57.119Z,7.30
2017-12-21T15:44:31.797Z,7.30
2017-12-21T15:47:05.532Z,7.20
2017-12-21T15:49:40.027Z,7.30
2017-12-21T15:52:14.460Z,7.40
2017-12-21T15:54:48.290Z,7.30
2017-12-21T15:57:23.104Z,7.40
2017-12-21T15:59:56.771Z,7.40
2017-12-21T16:02:30.606Z,7.40
2017-12-21T16:05:04.369Z,7.40
2017-12-21T16:07:38.225Z,7.30
2017-12-21T16:10:12.051Z,7.30
2017-12-21T16:12:46.054Z,7.30
2017-12-21T16:15:19.945Z,7.40
2017-12-21T16:17:54.074Z,7.40
2017-12-21T16:20:28.574Z,7.40
2017-12-21T16:23:02.465Z,7.40
2017-12-21T16:25:36.282Z,7.40
2017-12-21T16:28:10.125Z,7.50
2017-12-21T16:30:43.865Z,7.50
2017-12-21T16:33:17.700Z,7.50
2017-12-21T16:35:51.480Z,7.60
2017-12-21T16:38:25.236Z,7.60
2017-12-21T16:40:59.805Z,7.60
2017-12-21T16:43:33.590Z,7.60
2017-12-21T16:46:08.173Z,7.70
2017-12-21T16:48:41.864Z,7.60
2017-12-21T16:51:16.422Z,7.70
2017-12-21T16:53:50.124Z,7.70
2017-12-21T16:56:23.920Z,7.60
2017-12-21T16:58:57.764Z,7.60
2017-12-21T17:01:32.352Z,7.50
2017-12-21T17:04:06.852Z,7.50
2017-12-21T17:06:40.708Z,7.50
2017-12-21T17:09:14.456Z,7.40
2017-12-21T17:11:48.274Z,7.30
2017-12-21T17:14:21.988Z,7.30
2017-12-21T17:16:56.628Z,7.40
2017-12-21T17:19:31.252Z,7.40
2017-12-21T17:22:05.137Z,7.40
2017-12-21T17:24:38.937Z,7.40
2017-12-21T17:27:12.780Z,7.40
2017-12-21T17:29:46.591Z,7.50
2017-12-21T17:32:20.357Z,7.50
2017-12-21T17:34:54.164Z,7.50
2017-12-21T17:37:27.993Z,7.50
2017-12-21T17:40:01.832Z,7.50
2017-12-21T17:42:35.592Z,7.50
2017-12-21T17:45:09.334Z,7.50
2017-12-21T17:47:43.827Z,7.50
2017-12-21T17:50:17.653Z,7.50
2017-12-21T17:52:51.371Z,7.50
2017-12-21T17:55:25.203Z,7.50
2017-12-21T17:57:59.909Z,7.50
2017-12-21T18:00:34.190Z,7.50
2017-12-21T18:03:08.044Z,7.50
2017-12-21T18:05:41.930Z,7.60
2017-12-21T18:08:15.610Z,7.60
2017-12-21T18:10:50.092Z,7.60
2017-12-21T18:13:24.613Z,7.50
2017-12-21T18:15:58.440Z,7.50
2017-12-21T18:18:32.289Z,7.50
2017-12-21T18:21:06.886Z,7.60
2017-12-21T18:23:40.654Z,7.60
2017-12-21T18:26:15.209Z,7.60
2017-12-21T18:28:49.639Z,7.50
2017-12-21T18:31:23.679Z,7.50
2017-12-21T18:33:57.464Z,7.50
2017-12-21T18:36:31.359Z,7.50
2017-12-21T18:39:05.220Z,7.60
2017-12-21T18:41:38.965Z,7.60
2017-12-21T18:44:12.826Z,7.60
2017-12-21T18:46:46.528Z,7.60
2017-12-21T18:49:20.295Z,7.60
2017-12-21T18:51:54.392Z,7.60
2017-12-21T18:54:32.057Z,7.60
2017-12-21T18:57:05.880Z,7.60
2017-12-21T18:59:39.614Z,7.60
2017-12-21T19:02:13.481Z,7.60
2017-12-21T19:04:47.238Z,7.60
2017-12-21T19:07:21.066Z,7.70
2017-12-21T19:09:54.796Z,7.70
2017-12-21T19:12:28.633Z,7.70
2017-12-21T19:15:03.145Z,7.80
2017-12-21T19:17:37.207Z,7.80
2017-12-21T19:20:10.942Z,7.80
2017-12-21T19:22:44.794Z,7.70
2017-12-21T19:25:18.554Z,7.70
2017-12-21T19:27:52.350Z,7.70
2017-12-21T19:30:26.086Z,7.70
2017-12-21T19:32:59.901Z,7.70
2017-12-21T19:35:33.677Z,7.70
2017-12-21T19:38:07.547Z,7.60
2017-12-21T19:40:41.385Z,7.70
2017-12-21T19:43:15.249Z,7.70
2017-12-21T19:45:49.163Z,7.70
2017-12-21T19:48:23.785Z,7.80
2017-12-21T19:50:57.677Z,7.80
2017-12-21T19:53:32.177Z,7.70
2017-12-21T19:56:06.108Z,7.60
2017-12-21T19:58:39.915Z,7.70
2017-12-21T20:01:13.779Z,7.70
2017-12-21T20:03:48.211Z,7.60
2017-12-21T20:06:22.524Z,7.60
2017-12-21T20:08:56.287Z,7.60
2017-12-21T20:11:30.034Z,7.60
2017-12-21T20:14:03.869Z,7.60
2017-12-21T20:16:37.619Z,7.60
2017-12-21T20:19:11.581Z,7.60
2017-12-21T20:21:45.297Z,7.60
2017-12-21T20:24:19.075Z,7.60
2017-12-21T20:26:52.937Z,7.50
2017-12-21T20:29:27.476Z,7.40
2017-12-21T20:32:01.344Z,7.30
2017-12-21T20:34:35.124Z,7.30
2017-12-21T20:37:09.043Z,7.30
2017-12-21T20:39:42.881Z,7.30
2017-12-21T20:42:16.811Z,7.30
2017-12-21T20:44:50.846Z,7.30
2017-12-21T20:47:25.376Z,7.40
2017-12-21T20:49:59.235Z,7.40
2017-12-21T20:52:33.779Z,7.40
2017-12-21T20:55:07.704Z,7.40
2017-12-21T20:57:41.472Z,7.40
2017-12-21T21:00:15.241Z,7.50
2017-12-21T21:02:49.050Z,7.50
2017-12-21T21:05:22.986Z,7.50
2017-12-21T21:07:56.861Z,7.50
2017-12-21T21:10:30.707Z,7.50
2017-12-21T21:13:04.417Z,7.60
2017-12-21T21:15:38.222Z,7.70
2017-12-21T21:18:12.147Z,7.70
2017-12-21T21:20:46.037Z,7.70
2017-12-21T21:23:19.812Z,7.70
2017-12-21T21:25:54.392Z,7.70
2017-12-21T21:28:28.129Z,7.60
2017-12-21T21:31:02.688Z,7.50
2017-12-21T21:33:36.453Z,7.50
2017-12-21T21:36:10.207Z,7.50
2017-12-21T21:38:44.079Z,7.50
2017-12-21T21:41:18.596Z,7.50
2017-12-21T21:43:53.198Z,7.50
2017-12-21T21:46:27.092Z,7.50
2017-12-21T21:49:00.969Z,7.40
2017-12-21T21:51:35.322Z,7.40
2017-12-21T21:54:09.031Z,7.40
2017-12-21T21:56:43.593Z,7.40
2017-12-21T21:59:17.343Z,7.40
2017-12-21T22:01:51.268Z,7.30
2017-12-21T22:04:25.761Z,7.20
2017-12-21T22:06:59.503Z,7.20
2017-12-21T22:09:33.398Z,7.20
2017-12-21T22:12:07.490Z,7.20
2017-12-21T22:14:41.198Z,7.20
2017-12-21T22:17:15.303Z,7.30
2017-12-21T22:19:49.088Z,7.30
2017-12-21T22:22:23.019Z,7.20
2017-12-21T22:24:57.599Z,7.20
2017-12-21T22:27:31.460Z,7.20
2017-12-21T22:30:05.223Z,7.20
2017-12-21T22:32:39.036Z,7.20
2017-12-21T22:35:12.959Z,7.10
2017-12-21T22:37:46.815Z,7.10
2017-12-21T22:40:21.413Z,7.10
2017-12-21T22:42:55.253Z,7.10
2017-12-21T22:45:29.044Z,7.00
2017-12-21T22:48:02.912Z,7.00
2017-12-21T22:50:36.702Z,7.00
2017-12-21T22:53:10.536Z,7.00
2017-12-21T22:55:44.320Z,7.00
2017-12-21T22:58:18.216Z,7.00
2017-12-21T23:00:52.189Z,7.00
2017-12-21T23:03:26.069Z,7.00
2017-12-21T23:05:59.946Z,7.00
2017-12-21T23:08:33.700Z,7.00
2017-12-21T23:11:08.414Z,7.10
2017-12-21T23:13:42.337Z,7.10
2017-12-21T23:16:16.917Z,7.10
2017-12-21T23:18:50.619Z,7.10
2017-12-21T23:21:24.475Z,7.20
2017-12-21T23:23:59.078Z,7.20
2017-12-21T23:26:33.713Z,7.20
2017-12-21T23:29:07.497Z,7.10
2017-12-21T23:31:41.278Z,7.10
2017-12-21T23:34:15.210Z,7.20
2017-12-21T23:36:49.320Z,7.20
2017-12-21T23:39:23.004Z,7.20
2017-12-21T23:41:57.646Z,7.30
2017-12-21T23:44:31.414Z,7.30
2017-12-21T23:47:05.564Z,7.30
2017-12-21T23:49:39.405Z,7.40
2017-12-21T23:52:13.165Z,7.50
2017-12-21T23:54:48.290Z,7.50
2017-12-21T23:57:22.160Z,7.50
2017-12-21T23:59:56.018Z,7.50
